sensor_id;sensor_type;location;lat;lon;timestamp;P1;durP1;ratioP1;P2;durP2;ratioP2
15764;SDS011;7983;50.744;7.086;2024-01-07T00:02:05;13.63;;;8.83;;
15764;SDS011;7983;50.744;7.086;2024-01-07T00:04:32;11.60;;;7.73;;
15764;SDS011;7983;50.744;7.086;2024-01-07T00:07:01;11.83;;;8.13;;
15764;SDS011;7983;50.744;7.086;2024-01-07T00:09:30;13.70;;;9.03;;
15764;SDS011;7983;50.744;7.086;2024-01-07T00:11:57;12.00;;;8.33;;
15764;SDS011;7983;50.744;7.086;2024-01-07T00:14:23;13.80;;;8.93;;
15764;SDS011;7983;50.744;7.086;2024-01-07T00:16:49;13.63;;;8.87;;
15764;SDS011;7983;50.744;7.086;2024-01-07T00:19:14;11.43;;;8.13;;
15764;SDS011;7983;50.744;7.086;2024-01-07T00:21:40;13.67;;;8.70;;
15764;SDS011;7983;50.744;7.086;2024-01-07T00:24:08;14.03;;;8.67;;
15764;SDS011;7983;50.744;7.086;2024-01-07T00:26:33;14.13;;;8.70;;
15764;SDS011;7983;50.744;7.086;2024-01-07T00:28:59;14.67;;;9.00;;
15764;SDS011;7983;50.744;7.086;2024-01-07T00:31:27;15.40;;;9.20;;
15764;SDS011;7983;50.744;7.086;2024-01-07T00:33:52;14.50;;;9.83;;
15764;SDS011;7983;50.744;7.086;2024-01-07T00:36:18;16.60;;;10.50;;
15764;SDS011;7983;50.744;7.086;2024-01-07T00:38:43;16.07;;;10.30;;
15764;SDS011;7983;50.744;7.086;2024-01-07T00:41:09;16.57;;;10.37;;
15764;SDS011;7983;50.744;7.086;2024-01-07T00:43:37;15.63;;;10.33;;
15764;SDS011;7983;50.744;7.086;2024-01-07T00:46:03;16.17;;;10.13;;
15764;SDS011;7983;50.744;7.086;2024-01-07T00:48:29;15.63;;;9.80;;
15764;SDS011;7983;50.744;7.086;2024-01-07T00:50:59;14.90;;;9.40;;
15764;SDS011;7983;50.744;7.086;2024-01-07T00:53:28;13.77;;;8.97;;
15764;SDS011;7983;50.744;7.086;2024-01-07T00:55:56;13.33;;;8.70;;
15764;SDS011;7983;50.744;7.086;2024-01-07T00:58:22;12.83;;;8.53;;
15764;SDS011;7983;50.744;7.086;2024-01-07T01:00:50;11.77;;;8.23;;
15764;SDS011;7983;50.744;7.086;2024-01-07T01:03:18;12.00;;;7.97;;
15764;SDS011;7983;50.744;7.086;2024-01-07T01:05:47;12.53;;;8.10;;
15764;SDS011;7983;50.744;7.086;2024-01-07T01:08:15;13.83;;;8.70;;
15764;SDS011;7983;50.744;7.086;2024-01-07T01:10:41;12.57;;;8.50;;
15764;SDS011;7983;50.744;7.086;2024-01-07T01:13:09;12.87;;;8.33;;
15764;SDS011;7983;50.744;7.086;2024-01-07T01:15:35;10.67;;;7.47;;
15764;SDS011;7983;50.744;7.086;2024-01-07T01:18:02;12.33;;;8.20;;
15764;SDS011;7983;50.744;7.086;2024-01-07T01:20:28;11.13;;;7.60;;
15764;SDS011;7983;50.744;7.086;2024-01-07T01:22:54;13.50;;;8.23;;
15764;SDS011;7983;50.744;7.086;2024-01-07T01:25:22;12.43;;;7.93;;
15764;SDS011;7983;50.744;7.086;2024-01-07T01:27:47;12.70;;;7.97;;
15764;SDS011;7983;50.744;7.086;2024-01-07T01:30:15;10.93;;;7.60;;
15764;SDS011;7983;50.744;7.086;2024-01-07T01:32:43;11.33;;;8.27;;
15764;SDS011;7983;50.744;7.086;2024-01-07T01:35:11;11.30;;;7.50;;
15764;SDS011;7983;50.744;7.086;2024-01-07T01:37:37;9.50;;;6.30;;
15764;SDS011;7983;50.744;7.086;2024-01-07T01:40:03;10.87;;;7.33;;
15764;SDS011;7983;50.744;7.086;2024-01-07T01:42:29;11.67;;;7.50;;
15764;SDS011;7983;50.744;7.086;2024-01-07T01:44:57;9.40;;;6.67;;
15764;SDS011;7983;50.744;7.086;2024-01-07T01:47:26;10.27;;;6.90;;
15764;SDS011;7983;50.744;7.086;2024-01-07T01:49:54;11.43;;;7.30;;
15764;SDS011;7983;50.744;7.086;2024-01-07T01:52:20;12.60;;;8.07;;
15764;SDS011;7983;50.744;7.086;2024-01-07T01:54:46;11.60;;;7.30;;
15764;SDS011;7983;50.744;7.086;2024-01-07T01:57:15;9.90;;;6.77;;
15764;SDS011;7983;50.744;7.086;2024-01-07T01:59:45;12.10;;;7.87;;
15764;SDS011;7983;50.744;7.086;2024-01-07T02:02:14;12.80;;;8.40;;
15764;SDS011;7983;50.744;7.086;2024-01-07T02:04:42;13.60;;;8.90;;
15764;SDS011;7983;50.744;7.086;2024-01-07T02:07:10;13.00;;;8.67;;
15764;SDS011;7983;50.744;7.086;2024-01-07T02:09:36;14.47;;;9.17;;
15764;SDS011;7983;50.744;7.086;2024-01-07T02:12:02;12.20;;;8.57;;
15764;SDS011;7983;50.744;7.086;2024-01-07T02:14:36;12.37;;;8.07;;
15764;SDS011;7983;50.744;7.086;2024-01-07T02:17:02;12.80;;;8.50;;
15764;SDS011;7983;50.744;7.086;2024-01-07T02:19:28;12.27;;;7.83;;
15764;SDS011;7983;50.744;7.086;2024-01-07T02:21:56;10.20;;;7.03;;
15764;SDS011;7983;50.744;7.086;2024-01-07T02:24:21;10.90;;;7.37;;
15764;SDS011;7983;50.744;7.086;2024-01-07T02:26:47;10.30;;;6.93;;
15764;SDS011;7983;50.744;7.086;2024-01-07T02:29:15;11.30;;;7.40;;
15764;SDS011;7983;50.744;7.086;2024-01-07T02:31:43;12.23;;;8.20;;
15764;SDS011;7983;50.744;7.086;2024-01-07T02:34:09;9.97;;;7.37;;
15764;SDS011;7983;50.744;7.086;2024-01-07T02:36:37;10.13;;;7.57;;
15764;SDS011;7983;50.744;7.086;2024-01-07T02:39:03;10.63;;;7.30;;
15764;SDS011;7983;50.744;7.086;2024-01-07T02:41:29;10.60;;;6.57;;
15764;SDS011;7983;50.744;7.086;2024-01-07T02:43:54;9.53;;;6.83;;
15764;SDS011;7983;50.744;7.086;2024-01-07T02:46:20;9.33;;;6.20;;
15764;SDS011;7983;50.744;7.086;2024-01-07T02:48:49;9.87;;;6.83;;
15764;SDS011;7983;50.744;7.086;2024-01-07T02:51:14;9.00;;;6.03;;
15764;SDS011;7983;50.744;7.086;2024-01-07T02:53:40;10.30;;;6.93;;
15764;SDS011;7983;50.744;7.086;2024-01-07T02:56:05;9.23;;;6.50;;
15764;SDS011;7983;50.744;7.086;2024-01-07T02:58:33;8.87;;;6.20;;
15764;SDS011;7983;50.744;7.086;2024-01-07T03:01:02;7.03;;;5.50;;
15764;SDS011;7983;50.744;7.086;2024-01-07T03:03:30;8.60;;;5.53;;
15764;SDS011;7983;50.744;7.086;2024-01-07T03:05:56;6.77;;;5.10;;
15764;SDS011;7983;50.744;7.086;2024-01-07T03:08:21;6.53;;;5.00;;
15764;SDS011;7983;50.744;7.086;2024-01-07T03:10:47;7.43;;;5.30;;
15764;SDS011;7983;50.744;7.086;2024-01-07T03:13:12;7.03;;;5.10;;
15764;SDS011;7983;50.744;7.086;2024-01-07T03:15:38;7.57;;;5.10;;
15764;SDS011;7983;50.744;7.086;2024-01-07T03:18:06;8.50;;;5.60;;
15764;SDS011;7983;50.744;7.086;2024-01-07T03:20:31;7.87;;;5.00;;
15764;SDS011;7983;50.744;7.086;2024-01-07T03:22:59;7.20;;;5.63;;
15764;SDS011;7983;50.744;7.086;2024-01-07T03:25:28;8.30;;;5.50;;
15764;SDS011;7983;50.744;7.086;2024-01-07T03:27:55;9.60;;;6.57;;
15764;SDS011;7983;50.744;7.086;2024-01-07T03:30:23;8.17;;;6.03;;
15764;SDS011;7983;50.744;7.086;2024-01-07T03:32:51;9.33;;;6.40;;
15764;SDS011;7983;50.744;7.086;2024-01-07T03:35:21;8.73;;;6.10;;
15764;SDS011;7983;50.744;7.086;2024-01-07T03:37:49;8.50;;;6.00;;
15764;SDS011;7983;50.744;7.086;2024-01-07T03:40:16;11.27;;;6.73;;
15764;SDS011;7983;50.744;7.086;2024-01-07T03:42:42;9.43;;;6.70;;
15764;SDS011;7983;50.744;7.086;2024-01-07T03:45:08;8.80;;;6.33;;
15764;SDS011;7983;50.744;7.086;2024-01-07T03:47:34;10.37;;;6.90;;
15764;SDS011;7983;50.744;7.086;2024-01-07T03:49:59;10.93;;;7.70;;
15764;SDS011;7983;50.744;7.086;2024-01-07T03:52:25;13.23;;;8.37;;
15764;SDS011;7983;50.744;7.086;2024-01-07T03:54:50;11.23;;;7.57;;
15764;SDS011;7983;50.744;7.086;2024-01-07T03:57:18;10.63;;;7.47;;
15764;SDS011;7983;50.744;7.086;2024-01-07T03:59:44;11.33;;;7.93;;
15764;SDS011;7983;50.744;7.086;2024-01-07T04:02:14;12.80;;;9.03;;
15764;SDS011;7983;50.744;7.086;2024-01-07T04:04:41;13.60;;;8.90;;
15764;SDS011;7983;50.744;7.086;2024-01-07T04:07:07;13.67;;;8.77;;
15764;SDS011;7983;50.744;7.086;2024-01-07T04:09:35;12.57;;;8.40;;
15764;SDS011;7983;50.744;7.086;2024-01-07T04:12:02;13.00;;;8.53;;
15764;SDS011;7983;50.744;7.086;2024-01-07T04:14:28;14.17;;;9.37;;
15764;SDS011;7983;50.744;7.086;2024-01-07T04:16:54;11.33;;;8.23;;
15764;SDS011;7983;50.744;7.086;2024-01-07T04:19:20;11.93;;;8.73;;
15764;SDS011;7983;50.744;7.086;2024-01-07T04:21:46;12.47;;;7.80;;
15764;SDS011;7983;50.744;7.086;2024-01-07T04:24:11;13.10;;;8.80;;
15764;SDS011;7983;50.744;7.086;2024-01-07T04:26:37;12.97;;;8.90;;
15764;SDS011;7983;50.744;7.086;2024-01-07T04:29:05;11.03;;;7.90;;
15764;SDS011;7983;50.744;7.086;2024-01-07T04:31:34;12.47;;;8.77;;
15764;SDS011;7983;50.744;7.086;2024-01-07T04:33:59;12.43;;;8.90;;
15764;SDS011;7983;50.744;7.086;2024-01-07T04:36:25;13.17;;;8.93;;
15764;SDS011;7983;50.744;7.086;2024-01-07T04:38:51;11.63;;;8.27;;
15764;SDS011;7983;50.744;7.086;2024-01-07T04:41:16;11.27;;;8.27;;
15764;SDS011;7983;50.744;7.086;2024-01-07T04:43:44;12.87;;;9.10;;
15764;SDS011;7983;50.744;7.086;2024-01-07T04:46:10;12.03;;;8.60;;
15764;SDS011;7983;50.744;7.086;2024-01-07T04:48:36;11.57;;;7.93;;
15764;SDS011;7983;50.744;7.086;2024-01-07T04:51:02;12.10;;;8.50;;
15764;SDS011;7983;50.744;7.086;2024-01-07T04:53:30;11.17;;;8.30;;
15764;SDS011;7983;50.744;7.086;2024-01-07T04:55:55;11.97;;;8.17;;
15764;SDS011;7983;50.744;7.086;2024-01-07T04:58:21;11.23;;;8.13;;
15764;SDS011;7983;50.744;7.086;2024-01-07T05:00:49;9.60;;;6.90;;
15764;SDS011;7983;50.744;7.086;2024-01-07T05:03:17;10.63;;;7.53;;
15764;SDS011;7983;50.744;7.086;2024-01-07T05:05:43;9.70;;;6.90;;
15764;SDS011;7983;50.744;7.086;2024-01-07T05:08:13;9.57;;;6.83;;
15764;SDS011;7983;50.744;7.086;2024-01-07T05:10:39;10.40;;;7.03;;
15764;SDS011;7983;50.744;7.086;2024-01-07T05:13:04;8.70;;;6.40;;
15764;SDS011;7983;50.744;7.086;2024-01-07T05:15:31;8.37;;;6.30;;
15764;SDS011;7983;50.744;7.086;2024-01-07T05:17:57;9.77;;;7.40;;
15764;SDS011;7983;50.744;7.086;2024-01-07T05:20:25;10.77;;;7.67;;
15764;SDS011;7983;50.744;7.086;2024-01-07T05:22:51;11.57;;;8.03;;
15764;SDS011;7983;50.744;7.086;2024-01-07T05:25:16;11.77;;;7.87;;
15764;SDS011;7983;50.744;7.086;2024-01-07T05:27:42;10.03;;;7.23;;
15764;SDS011;7983;50.744;7.086;2024-01-07T05:30:10;10.10;;;6.57;;
15764;SDS011;7983;50.744;7.086;2024-01-07T05:32:36;10.73;;;7.87;;
15764;SDS011;7983;50.744;7.086;2024-01-07T05:35:04;9.33;;;6.20;;
15764;SDS011;7983;50.744;7.086;2024-01-07T05:37:32;9.77;;;6.80;;
15764;SDS011;7983;50.744;7.086;2024-01-07T05:39:57;9.50;;;6.97;;
15764;SDS011;7983;50.744;7.086;2024-01-07T05:42:25;10.63;;;7.40;;
15764;SDS011;7983;50.744;7.086;2024-01-07T05:44:51;10.43;;;7.23;;
15764;SDS011;7983;50.744;7.086;2024-01-07T05:47:17;11.80;;;7.40;;
15764;SDS011;7983;50.744;7.086;2024-01-07T05:49:43;9.43;;;6.83;;
15764;SDS011;7983;50.744;7.086;2024-01-07T05:52:08;9.53;;;7.10;;
15764;SDS011;7983;50.744;7.086;2024-01-07T05:54:34;9.30;;;7.17;;
15764;SDS011;7983;50.744;7.086;2024-01-07T05:57:00;9.93;;;7.40;;
15764;SDS011;7983;50.744;7.086;2024-01-07T05:59:28;12.40;;;7.37;;
15764;SDS011;7983;50.744;7.086;2024-01-07T06:01:57;10.53;;;7.43;;
15764;SDS011;7983;50.744;7.086;2024-01-07T06:04:23;10.47;;;6.83;;
15764;SDS011;7983;50.744;7.086;2024-01-07T06:06:49;10.43;;;7.37;;
15764;SDS011;7983;50.744;7.086;2024-01-07T06:09:15;10.40;;;7.33;;
15764;SDS011;7983;50.744;7.086;2024-01-07T06:11:40;11.33;;;7.47;;
15764;SDS011;7983;50.744;7.086;2024-01-07T06:14:06;11.40;;;7.43;;
15764;SDS011;7983;50.744;7.086;2024-01-07T06:16:34;13.00;;;8.23;;
15764;SDS011;7983;50.744;7.086;2024-01-07T06:18:59;11.57;;;7.43;;
15764;SDS011;7983;50.744;7.086;2024-01-07T06:21:27;13.27;;;8.27;;
15764;SDS011;7983;50.744;7.086;2024-01-07T06:23:53;12.67;;;8.10;;
15764;SDS011;7983;50.744;7.086;2024-01-07T06:26:21;11.90;;;8.40;;
15764;SDS011;7983;50.744;7.086;2024-01-07T06:28:46;11.23;;;7.57;;
15764;SDS011;7983;50.744;7.086;2024-01-07T06:31:12;11.30;;;7.97;;
15764;SDS011;7983;50.744;7.086;2024-01-07T06:33:37;13.13;;;8.93;;
15764;SDS011;7983;50.744;7.086;2024-01-07T06:36:03;10.70;;;8.17;;
15764;SDS011;7983;50.744;7.086;2024-01-07T06:38:29;12.93;;;8.40;;
15764;SDS011;7983;50.744;7.086;2024-01-07T06:40:57;10.87;;;8.07;;
15764;SDS011;7983;50.744;7.086;2024-01-07T06:43:26;12.23;;;8.37;;
15764;SDS011;7983;50.744;7.086;2024-01-07T06:45:52;14.17;;;8.83;;
15764;SDS011;7983;50.744;7.086;2024-01-07T06:48:18;13.37;;;9.40;;
15764;SDS011;7983;50.744;7.086;2024-01-07T06:50:44;12.17;;;8.23;;
15764;SDS011;7983;50.744;7.086;2024-01-07T06:53:10;11.73;;;8.17;;
15764;SDS011;7983;50.744;7.086;2024-01-07T06:55:35;14.27;;;9.50;;
15764;SDS011;7983;50.744;7.086;2024-01-07T06:58:01;14.43;;;10.00;;
15764;SDS011;7983;50.744;7.086;2024-01-07T07:00:29;12.17;;;9.20;;
15764;SDS011;7983;50.744;7.086;2024-01-07T07:02:57;13.87;;;8.87;;
15764;SDS011;7983;50.744;7.086;2024-01-07T07:05:23;10.50;;;7.57;;
15764;SDS011;7983;50.744;7.086;2024-01-07T07:07:48;14.00;;;9.33;;
15764;SDS011;7983;50.744;7.086;2024-01-07T07:10:14;12.83;;;8.87;;
15764;SDS011;7983;50.744;7.086;2024-01-07T07:12:42;12.37;;;9.00;;
15764;SDS011;7983;50.744;7.086;2024-01-07T07:15:07;12.77;;;9.07;;
15764;SDS011;7983;50.744;7.086;2024-01-07T07:17:39;13.57;;;9.07;;
15764;SDS011;7983;50.744;7.086;2024-01-07T07:20:05;13.30;;;9.27;;
15764;SDS011;7983;50.744;7.086;2024-01-07T07:22:34;14.40;;;10.10;;
15764;SDS011;7983;50.744;7.086;2024-01-07T07:25:00;13.47;;;9.13;;
15764;SDS011;7983;50.744;7.086;2024-01-07T07:27:28;13.93;;;9.47;;
15764;SDS011;7983;50.744;7.086;2024-01-07T07:29:53;11.43;;;8.87;;
15764;SDS011;7983;50.744;7.086;2024-01-07T07:32:24;12.23;;;8.73;;
15764;SDS011;7983;50.744;7.086;2024-01-07T07:34:49;10.97;;;7.50;;
15764;SDS011;7983;50.744;7.086;2024-01-07T07:37:20;11.90;;;8.67;;
15764;SDS011;7983;50.744;7.086;2024-01-07T07:39:45;12.17;;;8.47;;
15764;SDS011;7983;50.744;7.086;2024-01-07T07:42:13;10.50;;;8.00;;
15764;SDS011;7983;50.744;7.086;2024-01-07T07:44:42;13.40;;;8.57;;
15764;SDS011;7983;50.744;7.086;2024-01-07T07:47:08;13.00;;;8.87;;
15764;SDS011;7983;50.744;7.086;2024-01-07T07:49:37;10.53;;;8.00;;
15764;SDS011;7983;50.744;7.086;2024-01-07T07:52:07;13.20;;;8.60;;
15764;SDS011;7983;50.744;7.086;2024-01-07T07:54:41;11.57;;;7.70;;
15764;SDS011;7983;50.744;7.086;2024-01-07T07:57:12;11.90;;;8.93;;
15764;SDS011;7983;50.744;7.086;2024-01-07T07:59:38;11.43;;;7.93;;
15764;SDS011;7983;50.744;7.086;2024-01-07T08:02:05;11.10;;;7.80;;
15764;SDS011;7983;50.744;7.086;2024-01-07T08:04:36;11.13;;;8.20;;
15764;SDS011;7983;50.744;7.086;2024-01-07T08:07:02;11.33;;;8.33;;
15764;SDS011;7983;50.744;7.086;2024-01-07T08:09:27;12.47;;;8.70;;
15764;SDS011;7983;50.744;7.086;2024-01-07T08:11:55;10.33;;;7.80;;
15764;SDS011;7983;50.744;7.086;2024-01-07T08:14:23;10.37;;;7.30;;
15764;SDS011;7983;50.744;7.086;2024-01-07T08:16:49;12.27;;;8.57;;
15764;SDS011;7983;50.744;7.086;2024-01-07T08:19:15;12.20;;;8.47;;
15764;SDS011;7983;50.744;7.086;2024-01-07T08:21:40;10.67;;;7.60;;
15764;SDS011;7983;50.744;7.086;2024-01-07T08:24:06;10.40;;;7.43;;
15764;SDS011;7983;50.744;7.086;2024-01-07T08:26:35;9.53;;;7.37;;
15764;SDS011;7983;50.744;7.086;2024-01-07T08:29:03;11.23;;;8.20;;
15764;SDS011;7983;50.744;7.086;2024-01-07T08:31:31;11.07;;;8.17;;
15764;SDS011;7983;50.744;7.086;2024-01-07T08:33:57;10.07;;;7.73;;
15764;SDS011;7983;50.744;7.086;2024-01-07T08:36:23;11.20;;;7.93;;
15764;SDS011;7983;50.744;7.086;2024-01-07T08:38:48;11.77;;;7.63;;
15764;SDS011;7983;50.744;7.086;2024-01-07T08:41:17;9.87;;;7.37;;
15764;SDS011;7983;50.744;7.086;2024-01-07T08:43:43;12.83;;;8.70;;
15764;SDS011;7983;50.744;7.086;2024-01-07T08:46:10;10.47;;;8.37;;
15764;SDS011;7983;50.744;7.086;2024-01-07T08:48:35;12.33;;;9.20;;
15764;SDS011;7983;50.744;7.086;2024-01-07T08:51:06;11.33;;;8.13;;
15764;SDS011;7983;50.744;7.086;2024-01-07T08:53:34;9.00;;;6.97;;
15764;SDS011;7983;50.744;7.086;2024-01-07T08:56:01;12.07;;;8.20;;
15764;SDS011;7983;50.744;7.086;2024-01-07T08:58:29;11.73;;;8.47;;
15764;SDS011;7983;50.744;7.086;2024-01-07T09:00:55;11.00;;;8.23;;
15764;SDS011;7983;50.744;7.086;2024-01-07T09:03:22;10.13;;;7.43;;
15764;SDS011;7983;50.744;7.086;2024-01-07T09:05:50;11.13;;;7.30;;
15764;SDS011;7983;50.744;7.086;2024-01-07T09:08:18;9.67;;;7.50;;
15764;SDS011;7983;50.744;7.086;2024-01-07T09:10:44;10.07;;;7.47;;
15764;SDS011;7983;50.744;7.086;2024-01-07T09:13:12;12.00;;;8.53;;
15764;SDS011;7983;50.744;7.086;2024-01-07T09:15:37;11.77;;;8.43;;
15764;SDS011;7983;50.744;7.086;2024-01-07T09:18:03;10.40;;;7.33;;
15764;SDS011;7983;50.744;7.086;2024-01-07T09:20:32;11.23;;;7.97;;
15764;SDS011;7983;50.744;7.086;2024-01-07T09:22:58;11.20;;;7.50;;
15764;SDS011;7983;50.744;7.086;2024-01-07T09:25:26;10.73;;;8.10;;
15764;SDS011;7983;50.744;7.086;2024-01-07T09:27:52;10.17;;;7.37;;
15764;SDS011;7983;50.744;7.086;2024-01-07T09:30:17;9.00;;;6.70;;
15764;SDS011;7983;50.744;7.086;2024-01-07T09:32:43;10.47;;;7.07;;
15764;SDS011;7983;50.744;7.086;2024-01-07T09:35:09;9.83;;;6.63;;
15764;SDS011;7983;50.744;7.086;2024-01-07T09:37:40;11.30;;;7.70;;
15764;SDS011;7983;50.744;7.086;2024-01-07T09:40:05;12.40;;;8.87;;
15764;SDS011;7983;50.744;7.086;2024-01-07T09:42:31;11.70;;;8.27;;
15764;SDS011;7983;50.744;7.086;2024-01-07T09:45:01;10.67;;;7.90;;
15764;SDS011;7983;50.744;7.086;2024-01-07T09:47:31;11.47;;;7.80;;
15764;SDS011;7983;50.744;7.086;2024-01-07T09:49:57;10.33;;;7.53;;
15764;SDS011;7983;50.744;7.086;2024-01-07T09:52:27;9.43;;;7.63;;
15764;SDS011;7983;50.744;7.086;2024-01-07T09:54:58;10.93;;;8.50;;
15764;SDS011;7983;50.744;7.086;2024-01-07T09:57:27;11.90;;;8.10;;
15764;SDS011;7983;50.744;7.086;2024-01-07T09:59:53;11.70;;;7.57;;
15764;SDS011;7983;50.744;7.086;2024-01-07T10:02:21;10.23;;;7.33;;
15764;SDS011;7983;50.744;7.086;2024-01-07T10:04:48;10.63;;;7.53;;
15764;SDS011;7983;50.744;7.086;2024-01-07T10:07:14;10.23;;;7.33;;
15764;SDS011;7983;50.744;7.086;2024-01-07T10:09:40;10.13;;;7.43;;
15764;SDS011;7983;50.744;7.086;2024-01-07T10:12:09;10.83;;;7.30;;
15764;SDS011;7983;50.744;7.086;2024-01-07T10:14:40;10.30;;;7.73;;
15764;SDS011;7983;50.744;7.086;2024-01-07T10:17:17;12.80;;;8.03;;
15764;SDS011;7983;50.744;7.086;2024-01-07T10:19:43;11.20;;;8.10;;
15764;SDS011;7983;50.744;7.086;2024-01-07T10:22:14;11.57;;;8.33;;
15764;SDS011;7983;50.744;7.086;2024-01-07T10:24:43;9.70;;;7.23;;
15764;SDS011;7983;50.744;7.086;2024-01-07T10:27:13;14.93;;;10.17;;
15764;SDS011;7983;50.744;7.086;2024-01-07T10:29:38;11.73;;;9.10;;
15764;SDS011;7983;50.744;7.086;2024-01-07T10:32:07;11.60;;;7.93;;
15764;SDS011;7983;50.744;7.086;2024-01-07T10:34:35;11.93;;;8.97;;
15764;SDS011;7983;50.744;7.086;2024-01-07T10:37:02;10.70;;;7.87;;
15764;SDS011;7983;50.744;7.086;2024-01-07T10:39:30;13.10;;;8.70;;
15764;SDS011;7983;50.744;7.086;2024-01-07T10:41:58;14.17;;;9.20;;
15764;SDS011;7983;50.744;7.086;2024-01-07T10:44:25;14.03;;;9.50;;
15764;SDS011;7983;50.744;7.086;2024-01-07T10:46:53;12.13;;;8.70;;
15764;SDS011;7983;50.744;7.086;2024-01-07T10:49:20;11.70;;;8.53;;
15764;SDS011;7983;50.744;7.086;2024-01-07T10:52:03;11.40;;;7.93;;
15764;SDS011;7983;50.744;7.086;2024-01-07T10:54:30;10.43;;;7.73;;
15764;SDS011;7983;50.744;7.086;2024-01-07T10:57:00;11.23;;;7.63;;
15764;SDS011;7983;50.744;7.086;2024-01-07T10:59:50;9.20;;;7.03;;
15764;SDS011;7983;50.744;7.086;2024-01-07T11:02:18;10.50;;;7.23;;
15764;SDS011;7983;50.744;7.086;2024-01-07T11:04:49;9.57;;;6.90;;
15764;SDS011;7983;50.744;7.086;2024-01-07T11:10:31;8.03;;;6.57;;
15764;SDS011;7983;50.744;7.086;2024-01-07T11:13:03;7.93;;;5.90;;
15764;SDS011;7983;50.744;7.086;2024-01-07T11:18:20;7.50;;;6.27;;
15764;SDS011;7983;50.744;7.086;2024-01-07T11:20:46;8.30;;;6.53;;
15764;SDS011;7983;50.744;7.086;2024-01-07T11:23:25;8.90;;;6.40;;
15764;SDS011;7983;50.744;7.086;2024-01-07T11:26:01;7.83;;;6.13;;
15764;SDS011;7983;50.744;7.086;2024-01-07T11:34:07;6.47;;;5.30;;
15764;SDS011;7983;50.744;7.086;2024-01-07T11:36:36;7.10;;;5.60;;
15764;SDS011;7983;50.744;7.086;2024-01-07T11:39:03;7.17;;;5.83;;
15764;SDS011;7983;50.744;7.086;2024-01-07T11:41:32;7.17;;;5.90;;
15764;SDS011;7983;50.744;7.086;2024-01-07T11:43:59;7.17;;;5.90;;
15764;SDS011;7983;50.744;7.086;2024-01-07T11:46:28;8.00;;;6.40;;
15764;SDS011;7983;50.744;7.086;2024-01-07T11:48:58;8.67;;;6.57;;
15764;SDS011;7983;50.744;7.086;2024-01-07T11:51:28;7.63;;;6.43;;
15764;SDS011;7983;50.744;7.086;2024-01-07T11:54:00;9.17;;;7.57;;
15764;SDS011;7983;50.744;7.086;2024-01-07T11:56:26;10.10;;;7.73;;
15764;SDS011;7983;50.744;7.086;2024-01-07T11:58:53;8.60;;;7.50;;
15764;SDS011;7983;50.744;7.086;2024-01-07T12:01:18;8.10;;;6.80;;
15764;SDS011;7983;50.744;7.086;2024-01-07T12:03:45;8.67;;;6.90;;
15764;SDS011;7983;50.744;7.086;2024-01-07T12:06:11;8.60;;;7.17;;
15764;SDS011;7983;50.744;7.086;2024-01-07T12:08:39;8.43;;;7.03;;
15764;SDS011;7983;50.744;7.086;2024-01-07T12:11:11;8.57;;;7.17;;
15764;SDS011;7983;50.744;7.086;2024-01-07T12:13:37;9.13;;;7.60;;
15764;SDS011;7983;50.744;7.086;2024-01-07T12:16:09;10.90;;;9.00;;
15764;SDS011;7983;50.744;7.086;2024-01-07T12:18:41;9.37;;;7.23;;
15764;SDS011;7983;50.744;7.086;2024-01-07T12:21:07;10.77;;;7.73;;
15764;SDS011;7983;50.744;7.086;2024-01-07T12:23:36;9.50;;;7.60;;
15764;SDS011;7983;50.744;7.086;2024-01-07T12:26:07;9.10;;;7.20;;
15764;SDS011;7983;50.744;7.086;2024-01-07T12:28:34;10.43;;;7.73;;
15764;SDS011;7983;50.744;7.086;2024-01-07T12:30:59;9.03;;;7.63;;
15764;SDS011;7983;50.744;7.086;2024-01-07T12:33:26;9.23;;;7.60;;
15764;SDS011;7983;50.744;7.086;2024-01-07T12:35:56;9.67;;;7.90;;
15764;SDS011;7983;50.744;7.086;2024-01-07T12:38:23;9.53;;;7.57;;
15764;SDS011;7983;50.744;7.086;2024-01-07T12:40:49;9.80;;;7.83;;
15764;SDS011;7983;50.744;7.086;2024-01-07T12:43:16;10.63;;;7.53;;
15764;SDS011;7983;50.744;7.086;2024-01-07T12:45:46;9.97;;;7.00;;
15764;SDS011;7983;50.744;7.086;2024-01-07T12:48:12;9.63;;;7.70;;
15764;SDS011;7983;50.744;7.086;2024-01-07T12:50:38;10.30;;;7.63;;
15764;SDS011;7983;50.744;7.086;2024-01-07T12:53:04;8.67;;;7.00;;
15764;SDS011;7983;50.744;7.086;2024-01-07T12:55:30;9.60;;;7.37;;
15764;SDS011;7983;50.744;7.086;2024-01-07T12:57:56;8.10;;;6.73;;
15764;SDS011;7983;50.744;7.086;2024-01-07T13:00:23;9.23;;;6.77;;
15764;SDS011;7983;50.744;7.086;2024-01-07T13:02:54;8.93;;;6.63;;
15764;SDS011;7983;50.744;7.086;2024-01-07T13:05:20;9.17;;;6.67;;
15764;SDS011;7983;50.744;7.086;2024-01-07T13:07:46;8.33;;;6.77;;
15764;SDS011;7983;50.744;7.086;2024-01-07T13:10:12;8.63;;;6.90;;
15764;SDS011;7983;50.744;7.086;2024-01-07T13:12:38;7.57;;;6.40;;
15764;SDS011;7983;50.744;7.086;2024-01-07T13:15:04;6.80;;;6.00;;
15764;SDS011;7983;50.744;7.086;2024-01-07T13:17:32;10.60;;;8.47;;
15764;SDS011;7983;50.744;7.086;2024-01-07T13:20:03;10.43;;;7.60;;
15764;SDS011;7983;50.744;7.086;2024-01-07T13:22:31;7.37;;;6.50;;
15764;SDS011;7983;50.744;7.086;2024-01-07T13:24:59;9.30;;;6.70;;
15764;SDS011;7983;50.744;7.086;2024-01-07T13:27:27;9.27;;;6.67;;
15764;SDS011;7983;50.744;7.086;2024-01-07T13:29:55;7.50;;;6.13;;
15764;SDS011;7983;50.744;7.086;2024-01-07T13:32:22;7.03;;;5.90;;
15764;SDS011;7983;50.744;7.086;2024-01-07T13:34:48;7.17;;;5.70;;
15764;SDS011;7983;50.744;7.086;2024-01-07T13:37:21;7.67;;;5.90;;
15764;SDS011;7983;50.744;7.086;2024-01-07T13:39:46;6.13;;;5.03;;
15764;SDS011;7983;50.744;7.086;2024-01-07T13:42:14;7.33;;;6.00;;
15764;SDS011;7983;50.744;7.086;2024-01-07T13:44:40;7.63;;;5.70;;
15764;SDS011;7983;50.744;7.086;2024-01-07T13:47:11;7.27;;;5.60;;
15764;SDS011;7983;50.744;7.086;2024-01-07T13:49:39;5.77;;;4.77;;
15764;SDS011;7983;50.744;7.086;2024-01-07T13:52:07;6.50;;;5.07;;
15764;SDS011;7983;50.744;7.086;2024-01-07T13:54:34;7.50;;;5.60;;
15764;SDS011;7983;50.744;7.086;2024-01-07T13:57:02;6.50;;;5.17;;
15764;SDS011;7983;50.744;7.086;2024-01-07T13:59:28;6.10;;;4.87;;
15764;SDS011;7983;50.744;7.086;2024-01-07T14:01:54;9.70;;;7.00;;
15764;SDS011;7983;50.744;7.086;2024-01-07T14:04:24;8.10;;;5.80;;
15764;SDS011;7983;50.744;7.086;2024-01-07T14:06:55;6.83;;;5.07;;
15764;SDS011;7983;50.744;7.086;2024-01-07T14:09:21;6.47;;;4.40;;
15764;SDS011;7983;50.744;7.086;2024-01-07T14:11:49;5.10;;;4.23;;
15764;SDS011;7983;50.744;7.086;2024-01-07T14:14:18;5.27;;;4.03;;
15764;SDS011;7983;50.744;7.086;2024-01-07T14:16:48;4.87;;;4.20;;
15764;SDS011;7983;50.744;7.086;2024-01-07T14:19:14;5.43;;;4.10;;
15764;SDS011;7983;50.744;7.086;2024-01-07T14:21:42;5.00;;;3.70;;
15764;SDS011;7983;50.744;7.086;2024-01-07T14:24:08;4.73;;;3.97;;
15764;SDS011;7983;50.744;7.086;2024-01-07T14:26:33;3.97;;;3.47;;
15764;SDS011;7983;50.744;7.086;2024-01-07T14:28:59;4.87;;;3.43;;
15764;SDS011;7983;50.744;7.086;2024-01-07T14:31:24;4.13;;;3.23;;
15764;SDS011;7983;50.744;7.086;2024-01-07T14:33:55;6.07;;;4.50;;
15764;SDS011;7983;50.744;7.086;2024-01-07T14:36:23;6.40;;;5.17;;
15764;SDS011;7983;50.744;7.086;2024-01-07T14:38:48;5.33;;;4.07;;
15764;SDS011;7983;50.744;7.086;2024-01-07T14:41:16;4.97;;;4.10;;
15764;SDS011;7983;50.744;7.086;2024-01-07T14:43:44;4.23;;;3.60;;
15764;SDS011;7983;50.744;7.086;2024-01-07T14:46:09;4.90;;;3.40;;
15764;SDS011;7983;50.744;7.086;2024-01-07T14:48:35;4.37;;;3.37;;
15764;SDS011;7983;50.744;7.086;2024-01-07T14:51:01;4.00;;;3.13;;
15764;SDS011;7983;50.744;7.086;2024-01-07T14:53:27;3.20;;;2.90;;
15764;SDS011;7983;50.744;7.086;2024-01-07T14:55:56;3.47;;;2.63;;
15764;SDS011;7983;50.744;7.086;2024-01-07T14:58:23;4.20;;;3.10;;
15764;SDS011;7983;50.744;7.086;2024-01-07T15:00:49;4.73;;;3.77;;
15764;SDS011;7983;50.744;7.086;2024-01-07T15:03:17;5.63;;;3.23;;
15764;SDS011;7983;50.744;7.086;2024-01-07T15:05:44;4.10;;;3.10;;